Time;durP1;ratioP1;P1;durP2;ratioP2;P2;SDS_P1;SDS_P2;PMS_P1;PMS_P2;Temp;Humidity;BMP_temperature;BMP_pressure;BME280_temperature;BME280_humidity;BME280_pressure;Samples;Min_cycle;Max_cycle;Signal;HPM_P1;HPM_P2
2021/09/09 00:00:07;;;;;;;11.27;10.30;;;;;;;12.05;100.00;97862.47;4980995;28;20435;-70
2021/09/09 00:02:35;;;;;;;10.07;9.23;;;;;;;12.02;100.00;97858.34;4992576;28;20307;-70
2021/09/09 00:05:04;;;;;;;10.33;9.43;;;;;;;11.94;100.00;97855.72;4989114;28;20363;-70
2021/09/09 00:07:36;;;;;;;10.70;9.70;;;;;;;12.07;100.00;97858.66;4987277;28;20562;-70
2021/09/09 00:10:05;;;;;;;11.33;10.33;;;;;;;11.93;100.00;97856.72;4985718;28;20471;-71
2021/09/09 00:12:33;;;;;;;9.60;8.80;;;;;;;11.99;100.00;97851.53;4911919;28;20985;-69
2021/09/09 00:15:03;;;;;;;10.63;9.63;;;;;;;11.82;100.00;97850.00;4973265;28;20598;-70
2021/09/09 00:17:32;;;;;;;10.93;9.80;;;;;;;11.77;100.00;97849.69;4989575;28;20244;-70
2021/09/09 00:20:00;;;;;;;11.10;9.80;;;;;;;11.70;100.00;97850.38;4979432;28;20672;-69
2021/09/09 00:22:28;;;;;;;10.50;9.53;;;;;;;11.67;100.00;97850.72;4992127;28;20612;-70
2021/09/09 00:24:56;;;;;;;10.97;9.77;;;;;;;11.77;100.00;97849.69;4984078;28;20201;-70
2021/09/09 00:27:24;;;;;;;9.90;8.93;;;;;;;11.70;100.00;97847.72;4957032;28;20233;-69
2021/09/09 00:29:52;;;;;;;10.57;9.57;;;;;;;11.62;100.00;97852.28;4958379;28;20213;-70
2021/09/09 00:32:20;;;;;;;12.33;9.63;;;;;;;11.67;100.00;97848.06;4983000;28;20197;-70
2021/09/09 00:34:49;;;;;;;10.17;9.27;;;;;;;11.65;100.00;97849.25;4983094;28;20228;-70
2021/09/09 00:37:17;;;;;;;12.17;8.73;;;;;;;11.58;100.00;97843.81;4986139;28;20220;-70
2021/09/09 00:39:45;;;;;;;9.70;8.87;;;;;;;11.58;100.00;97839.34;4988522;28;20398;-70
2021/09/09 00:42:13;;;;;;;10.23;9.40;;;;;;;11.65;100.00;97846.59;4996378;28;20221;-69
2021/09/09 00:44:41;;;;;;;10.40;9.47;;;;;;;11.70;100.00;97844.25;4963302;28;20212;-71
2021/09/09 00:47:10;;;;;;;10.57;9.67;;;;;;;11.60;100.00;97843.66;4987907;28;20311;-70
2021/09/09 00:49:41;;;;;;;15.67;10.47;;;;;;;11.48;100.00;97848.53;4982070;28;20216;-70
2021/09/09 00:52:12;;;;;;;10.60;9.50;;;;;;;11.41;100.00;97843.06;5000974;28;20216;-69
2021/09/09 00:54:41;;;;;;;10.37;9.53;;;;;;;11.42;100.00;97834.09;4996126;28;20205;-70
2021/09/09 00:57:09;;;;;;;9.80;8.90;;;;;;;11.41;100.00;97833.28;4994579;28;20562;-70
2021/09/09 00:59:37;;;;;;;9.27;8.50;;;;;;;11.37;100.00;97839.94;4956966;28;20216;-70
2021/09/09 01:02:06;;;;;;;10.07;9.27;;;;;;;11.38;100.00;97835.47;4982818;28;20225;-70
2021/09/09 01:04:34;;;;;;;10.77;9.40;;;;;;;11.43;100.00;97839.25;4986131;28;20389;-70
2021/09/09 01:07:02;;;;;;;9.43;8.63;;;;;;;11.44;100.00;97834.75;4971767;28;20879;-69
2021/09/09 01:09:31;;;;;;;10.90;9.87;;;;;;;11.53;100.00;97833.72;4984000;28;20980;-70
2021/09/09 01:11:59;;;;;;;9.67;8.87;;;;;;;11.44;100.00;97834.75;4984683;28;20205;-70
2021/09/09 01:14:27;;;;;;;11.03;10.13;;;;;;;11.31;100.00;97832.66;4983290;28;20224;-70
2021/09/09 01:16:55;;;;;;;10.07;9.07;;;;;;;11.27;100.00;97834.84;4948638;28;20220;-70
2021/09/09 01:19:23;;;;;;;10.23;9.23;;;;;;;11.25;100.00;97841.31;4983368;28;20728;-70
2021/09/09 01:21:51;;;;;;;10.33;9.23;;;;;;;11.24;100.00;97840.50;4977160;28;20227;-71
2021/09/09 01:24:22;;;;;;;10.27;9.27;;;;;;;11.17;100.00;97839.50;4985049;28;20289;-70
2021/09/09 01:26:53;;;;;;;10.73;9.73;;;;;;;11.19;100.00;97837.53;4988468;28;20548;-69
2021/09/09 01:29:21;;;;;;;10.47;9.50;;;;;;;11.12;100.00;97845.34;4982546;28;20201;-69
2021/09/09 01:31:49;;;;;;;10.10;9.30;;;;;;;11.06;100.00;97848.69;4937762;28;20209;-70
2021/09/09 01:34:18;;;;;;;11.17;9.77;;;;;;;11.04;100.00;97844.53;4991529;28;20644;-70
2021/09/09 01:36:47;;;;;;;9.33;8.60;;;;;;;11.00;100.00;97842.22;4979327;28;20343;-70
2021/09/09 01:39:15;;;;;;;10.20;9.33;;;;;;;10.95;100.00;97844.56;4976367;28;20351;-70
2021/09/09 01:41:44;;;;;;;9.47;8.60;;;;;;;10.99;100.00;97848.53;4994714;28;20201;-72
2021/09/09 01:44:12;;;;;;;10.03;9.13;;;;;;;11.02;100.00;97838.56;4977859;28;20275;-70
2021/09/09 01:46:40;;;;;;;10.73;9.90;;;;;;;11.08;100.00;97841.38;4957776;28;20237;-70
2021/09/09 01:49:10;;;;;;;10.10;9.10;;;;;;;11.16;100.00;97845.81;4988931;28;20208;-70
2021/09/09 01:51:39;;;;;;;10.37;9.40;;;;;;;11.03;100.00;97845.53;4982891;28;20209;-70
2021/09/09 01:54:07;;;;;;;10.50;9.53;;;;;;;10.94;100.00;97844.72;4991490;28;20608;-70
2021/09/09 01:56:35;;;;;;;10.80;9.87;;;;;;;10.84;100.00;97844.94;4996109;28;20248;-71
2021/09/09 01:59:04;;;;;;;9.50;8.70;;;;;;;10.84;100.00;97842.28;4999655;28;20212;-70
2021/09/09 02:01:32;;;;;;;10.00;9.20;;;;;;;10.75;100.00;97840.63;4950825;28;21649;-70
2021/09/09 02:04:01;;;;;;;10.43;9.43;;;;;;;10.82;100.00;97841.63;4993713;28;20228;-70
2021/09/09 02:06:29;;;;;;;10.30;9.40;;;;;;;10.87;100.00;97844.59;4983223;28;20239;-70
2021/09/09 02:08:57;;;;;;;10.20;9.30;;;;;;;10.82;100.00;97836.31;4986511;28;20931;-70
2021/09/09 02:11:25;;;;;;;9.60;8.80;;;;;;;10.75;100.00;97832.69;4985656;28;20200;-70
2021/09/09 02:13:53;;;;;;;9.97;9.07;;;;;;;10.65;100.00;97840.84;4987423;28;20219;-70
2021/09/09 02:16:22;;;;;;;10.33;9.43;;;;;;;10.66;100.00;97832.69;4990260;28;20229;-70
2021/09/09 02:18:50;;;;;;;11.07;9.90;;;;;;;10.73;100.00;97840.81;4950039;28;20334;-71
2021/09/09 02:21:18;;;;;;;10.37;9.37;;;;;;;10.68;100.00;97837.84;4993349;28;20216;-70
2021/09/09 02:23:46;;;;;;;11.10;10.10;;;;;;;10.71;100.00;97840.16;4954779;28;20648;-70
2021/09/09 02:26:14;;;;;;;9.87;9.17;;;;;;;10.73;100.00;97832.84;4983335;28;20345;-70
2021/09/09 02:28:42;;;;;;;9.23;8.43;;;;;;;10.66;100.00;97827.41;4992048;28;20869;-69
2021/09/09 02:31:10;;;;;;;10.00;9.10;;;;;;;10.60;100.00;97833.38;4979968;28;20466;-69
2021/09/09 02:33:40;;;;;;;10.33;9.47;;;;;;;10.57;100.00;97839.00;4992939;28;20644;-69
2021/09/09 02:36:08;;;;;;;10.00;9.10;;;;;;;10.59;100.00;97837.03;4966042;28;20452;-70
2021/09/09 02:38:36;;;;;;;10.50;9.50;;;;;;;10.60;100.00;97830.72;4957062;28;20201;-70
2021/09/09 02:41:04;;;;;;;9.57;8.63;;;;;;;10.53;100.00;97835.84;4969496;28;20212;-70
2021/09/09 02:43:33;;;;;;;9.50;8.63;;;;;;;10.51;100.00;97834.38;4997464;28;20216;-70
2021/09/09 02:46:00;;;;;;;9.90;9.00;;;;;;;10.69;100.00;97823.59;4996956;28;20891;-71
2021/09/09 02:48:29;;;;;;;10.23;9.33;;;;;;;10.62;100.00;97817.31;4994049;28;20215;-70
2021/09/09 02:50:58;;;;;;;10.43;9.50;;;;;;;10.54;100.00;97824.25;4982496;28;20699;-71
2021/09/09 02:53:26;;;;;;;9.57;8.77;;;;;;;10.55;100.00;97814.50;4989617;28;20592;-71
2021/09/09 02:55:54;;;;;;;9.57;8.67;;;;;;;10.54;100.00;97810.22;4958234;28;20712;-70
2021/09/09 02:58:22;;;;;;;9.60;8.70;;;;;;;10.39;100.00;97810.03;4971953;28;20251;-70
2021/09/09 03:00:50;;;;;;;9.40;8.57;;;;;;;10.52;100.00;97804.25;4990755;28;20631;-70
2021/09/09 03:03:20;;;;;;;9.13;8.33;;;;;;;10.45;100.00;97809.38;4989314;28;20561;-71
2021/09/09 03:05:49;;;;;;;9.63;8.83;;;;;;;10.38;100.00;97803.88;4990321;28;20216;-70
2021/09/09 03:08:18;;;;;;;9.70;8.60;;;;;;;10.38;100.00;97798.59;4977909;28;20455;-70
2021/09/09 03:10:46;;;;;;;10.23;9.13;;;;;;;10.52;100.00;97797.13;4957831;28;20216;-70
2021/09/09 03:13:14;;;;;;;10.73;9.67;;;;;;;10.59;100.00;97799.94;4982551;28;20421;-70
2021/09/09 03:15:42;;;;;;;9.70;8.87;;;;;;;10.45;100.00;97793.50;4995179;28;20387;-70
2021/09/09 03:18:10;;;;;;;10.80;9.90;;;;;;;10.37;100.00;97794.28;4976633;28;20298;-70
2021/09/09 03:20:38;;;;;;;10.43;9.53;;;;;;;10.59;100.00;97784.03;4970387;28;20461;-70
2021/09/09 03:23:06;;;;;;;9.87;9.00;;;;;;;10.56;100.00;97785.19;4977942;28;20224;-69
2021/09/09 03:25:35;;;;;;;9.40;8.63;;;;;;;10.50;100.00;97787.69;4954249;28;20423;-70
2021/09/09 03:28:03;;;;;;;11.07;10.07;;;;;;;10.54;100.00;97783.72;4981545;28;20228;-70
2021/09/09 03:30:31;;;;;;;10.53;9.53;;;;;;;10.49;100.00;97780.75;4996272;28;20546;-70
2021/09/09 03:32:59;;;;;;;10.70;9.70;;;;;;;10.53;100.00;97784.72;4992594;28;20819;-70
2021/09/09 03:35:27;;;;;;;10.60;9.60;;;;;;;10.42;100.00;97778.78;4988125;28;20205;-69
2021/09/09 03:37:55;;;;;;;10.47;9.57;;;;;;;10.35;100.00;97788.34;4972739;28;20764;-71
2021/09/09 03:40:23;;;;;;;10.20;9.27;;;;;;;10.45;100.00;97782.06;4994634;28;20212;-69
2021/09/09 03:42:52;;;;;;;10.63;9.73;;;;;;;10.44;100.00;97780.44;4943661;28;20220;-70
2021/09/09 03:45:20;;;;;;;10.97;9.03;;;;;;;10.41;100.00;97777.09;4977516;28;20213;-70
2021/09/09 03:47:48;;;;;;;10.57;9.67;;;;;;;10.45;100.00;97774.13;4988200;28;20229;-70
2021/09/09 03:50:16;;;;;;;11.37;10.23;;;;;;;10.52;100.00;97775.91;4983385;28;20208;-70
2021/09/09 03:52:44;;;;;;;10.93;9.70;;;;;;;10.42;100.00;97776.13;4969583;28;20780;-71
2021/09/09 03:55:12;;;;;;;10.67;9.77;;;;;;;10.42;100.00;97784.06;4988431;28;20319;-70
2021/09/09 03:57:40;;;;;;;10.63;9.63;;;;;;;10.39;100.00;97778.25;4956227;28;20679;-71
2021/09/09 04:00:11;;;;;;;11.20;10.30;;;;;;;10.31;100.00;97775.59;4984838;28;20438;-71
2021/09/09 04:02:39;;;;;;;10.83;9.47;;;;;;;10.13;100.00;97774.78;4982964;28;21554;-71
2021/09/09 04:05:08;;;;;;;10.97;9.87;;;;;;;10.16;100.00;97791.34;4971083;28;20287;-72
2021/09/09 04:07:36;;;;;;;10.20;9.20;;;;;;;10.14;100.00;97787.03;4976673;28;20235;-72
2021/09/09 04:10:05;;;;;;;9.93;8.90;;;;;;;10.14;100.00;97781.75;4962141;28;20350;-71
2021/09/09 04:12:34;;;;;;;10.23;9.43;;;;;;;10.08;100.00;97785.06;4950175;28;20749;-71
2021/09/09 04:15:02;;;;;;;10.30;9.43;;;;;;;10.09;100.00;97791.16;4981379;28;20223;-71
2021/09/09 04:17:34;;;;;;;10.23;9.27;;;;;;;10.11;100.00;97791.81;4996841;28;20248;-70
2021/09/09 04:20:03;;;;;;;10.93;9.63;;;;;;;10.18;100.00;97792.00;4991299;28;20209;-71
2021/09/09 04:22:32;;;;;;;9.67;8.90;;;;;;;10.17;100.00;97793.00;4989142;28;20208;-71
2021/09/09 04:25:02;;;;;;;10.20;9.20;;;;;;;10.16;100.00;97788.69;4983454;28;20228;-72
2021/09/09 04:27:31;;;;;;;9.80;8.80;;;;;;;10.06;100.00;97786.22;4956478;28;20441;-71
2021/09/09 04:29:59;;;;;;;10.80;9.70;;;;;;;10.04;100.00;97788.19;4994982;28;20520;-71
2021/09/09 04:32:27;;;;;;;9.70;8.80;;;;;;;10.18;100.00;97795.47;4981907;28;20219;-71
2021/09/09 04:34:56;;;;;;;10.40;9.50;;;;;;;10.08;100.00;97787.72;4969117;28;20898;-71
2021/09/09 04:37:24;;;;;;;10.07;9.13;;;;;;;10.16;100.00;97789.50;4991212;28;20220;-71
2021/09/09 04:39:52;;;;;;;10.27;9.37;;;;;;;10.21;100.00;97789.84;4959353;28;20212;-72
2021/09/09 04:42:20;;;;;;;9.70;8.90;;;;;;;10.09;100.00;97788.53;4994986;28;20404;-70
2021/09/09 04:44:48;;;;;;;10.53;9.43;;;;;;;10.01;100.00;97789.34;4966903;28;20441;-71
2021/09/09 04:47:16;;;;;;;10.17;9.17;;;;;;;10.05;100.00;97798.63;4992013;28;20910;-72
2021/09/09 04:49:44;;;;;;;11.03;9.97;;;;;;;10.09;100.00;97799.09;4956924;28;20216;-71
2021/09/09 04:52:13;;;;;;;9.97;9.10;;;;;;;10.12;100.00;97799.63;4988083;28;20695;-70
2021/09/09 04:54:41;;;;;;;11.13;10.00;;;;;;;10.05;100.00;97793.34;4989212;28;20205;-71
2021/09/09 04:57:09;;;;;;;10.10;9.20;;;;;;;10.14;100.00;97802.09;4988483;28;20232;-71
2021/09/09 04:59:37;;;;;;;10.07;9.17;;;;;;;10.07;100.00;97799.28;4989577;28;20528;-71
2021/09/09 05:02:05;;;;;;;10.40;9.37;;;;;;;10.08;100.00;97802.75;4970837;28;20335;-69
2021/09/09 05:04:33;;;;;;;11.40;9.30;;;;;;;10.09;100.00;97789.38;4961724;28;20306;-72
2021/09/09 05:07:01;;;;;;;10.67;9.73;;;;;;;10.08;100.00;97792.16;4989257;28;20244;-70
2021/09/09 05:09:31;;;;;;;10.10;9.23;;;;;;;10.10;100.00;97790.19;4979944;28;20224;-69
2021/09/09 05:11:58;;;;;;;10.30;9.30;;;;;;;10.25;100.00;97799.13;4979711;28;20212;-69
2021/09/09 05:14:26;;;;;;;10.63;9.67;;;;;;;10.24;100.00;97792.16;4984254;28;20204;-69
2021/09/09 05:16:54;;;;;;;10.87;9.87;;;;;;;10.30;100.00;97795.16;4976469;28;20223;-69
2021/09/09 05:19:22;;;;;;;10.43;9.43;;;;;;;10.34;100.00;97791.97;4949877;28;20632;-69
2021/09/09 05:21:50;;;;;;;11.80;10.60;;;;;;;10.42;100.00;97789.38;4981597;28;20204;-69
2021/09/09 05:24:18;;;;;;;11.30;10.30;;;;;;;10.52;100.00;97783.88;4982769;28;20374;-69
2021/09/09 05:26:48;;;;;;;12.67;11.37;;;;;;;10.64;100.00;97780.88;4982783;28;20594;-69
2021/09/09 05:29:16;;;;;;;11.90;10.90;;;;;;;10.70;100.00;97788.16;4983620;28;20213;-68
2021/09/09 05:31:44;;;;;;;12.50;11.23;;;;;;;10.80;100.00;97790.63;4977536;28;20217;-69
2021/09/09 05:34:12;;;;;;;14.37;11.10;;;;;;;10.91;100.00;97792.88;4951556;28;20840;-70
2021/09/09 05:36:40;;;;;;;10.80;9.77;;;;;;;10.95;100.00;97796.00;4986756;28;20225;-69
2021/09/09 05:39:07;;;;;;;11.13;10.13;;;;;;;11.00;100.00;97791.03;4974287;28;20338;-69
2021/09/09 05:41:35;;;;;;;10.27;9.30;;;;;;;11.06;100.00;97800.09;4993031;28;20704;-69
2021/09/09 05:44:05;;;;;;;11.43;10.33;;;;;;;11.19;100.00;97792.44;4980926;28;20236;-69
2021/09/09 05:46:33;;;;;;;11.20;10.10;;;;;;;11.34;100.00;97800.47;4992633;28;20590;-70
2021/09/09 05:49:01;;;;;;;10.83;9.80;;;;;;;11.36;100.00;97810.94;4980004;28;20775;-70
2021/09/09 05:51:29;;;;;;;11.40;10.30;;;;;;;11.38;100.00;97814.22;4964499;28;20491;-69
2021/09/09 05:53:59;;;;;;;10.97;9.97;;;;;;;11.41;100.00;97806.75;4988217;28;20231;-68
2021/09/09 05:56:27;;;;;;;10.73;9.83;;;;;;;11.53;100.00;97809.81;4993250;28;20733;-68
2021/09/09 05:58:54;;;;;;;11.17;10.20;;;;;;;11.65;100.00;97814.75;4975298;28;20217;-69
2021/09/09 06:01:24;;;;;;;10.30;9.40;;;;;;;11.75;100.00;97815.34;4987973;28;20620;-70
2021/09/09 06:03:54;;;;;;;11.83;10.27;;;;;;;11.94;100.00;97815.91;4971302;28;20382;-70
2021/09/09 06:06:22;;;;;;;10.03;9.20;;;;;;;12.07;100.00;97808.19;4960879;28;20733;-69
2021/09/09 06:08:50;;;;;;;10.43;9.53;;;;;;;12.32;100.00;97802.69;4982171;28;20217;-69
2021/09/09 06:11:18;;;;;;;10.13;9.13;;;;;;;12.50;100.00;97802.34;4987623;28;20770;-69
2021/09/09 06:13:46;;;;;;;10.07;9.00;;;;;;;12.79;100.00;97808.69;4984376;28;20205;-70
2021/09/09 06:16:14;;;;;;;9.80;8.90;;;;;;;12.86;100.00;97812.25;4986468;28;20497;-68
2021/09/09 06:18:43;;;;;;;10.07;9.07;;;;;;;13.12;100.00;97804.84;4973062;28;21000;-69
2021/09/09 06:21:11;;;;;;;9.80;9.00;;;;;;;13.15;100.00;97802.63;4953066;28;21176;-69
2021/09/09 06:23:39;;;;;;;9.73;8.73;;;;;;;13.41;100.00;97801.28;4984483;28;20212;-72
2021/09/09 06:26:22;;;;;;;10.00;9.20;;;;;;;13.56;100.00;97801.28;4987946;28;20531;-69
2021/09/09 06:28:50;;;;;;;10.33;9.43;;;;;;;13.69;100.00;97797.13;4984260;28;20232;-69
2021/09/09 06:31:18;;;;;;;9.30;8.50;;;;;;;13.74;100.00;97794.72;4986455;28;20569;-69
2021/09/09 06:33:47;;;;;;;9.80;8.90;;;;;;;13.87;100.00;97794.03;4974526;28;20731;-69
2021/09/09 06:36:15;;;;;;;10.27;9.30;;;;;;;13.86;100.00;97792.38;4985835;28;20645;-70
2021/09/09 06:38:44;;;;;;;10.43;9.37;;;;;;;13.87;100.00;97781.53;4941003;28;20217;-70
2021/09/09 06:41:12;;;;;;;10.27;9.40;;;;;;;13.95;100.00;97790.41;4998552;28;20215;-69
2021/09/09 06:43:40;;;;;;;11.63;9.20;;;;;;;14.01;100.00;97782.47;4958782;28;20767;-69
2021/09/09 06:46:08;;;;;;;13.27;10.23;;;;;;;14.16;100.00;97776.25;4985787;28;20255;-70
2021/09/09 06:48:36;;;;;;;9.67;8.87;;;;;;;14.28;100.00;97779.22;4993301;28;20212;-69
2021/09/09 06:51:05;;;;;;;9.80;8.90;;;;;;;14.61;100.00;97798.13;4979627;28;20401;-71
2021/09/09 06:53:33;;;;;;;13.17;8.77;;;;;;;14.53;100.00;97802.75;4992513;28;20208;-69
2021/09/09 06:56:01;;;;;;;9.60;8.70;;;;;;;14.58;100.00;97795.00;4990533;28;20197;-68
2021/09/09 06:58:29;;;;;;;9.70;8.90;;;;;;;14.73;100.00;97792.25;4988625;28;20708;-68
2021/09/09 07:00:57;;;;;;;9.90;9.10;;;;;;;14.97;100.00;97795.47;4951911;28;20218;-69
2021/09/09 07:03:29;;;;;;;9.33;8.43;;;;;;;15.10;100.00;97792.88;4983162;28;20211;-68
2021/09/09 07:05:58;;;;;;;9.10;8.30;;;;;;;15.13;100.00;97791.66;4970701;28;20228;-70
2021/09/09 07:08:27;;;;;;;8.67;7.97;;;;;;;15.40;100.00;97789.13;4984235;28;20219;-68
2021/09/09 07:10:55;;;;;;;8.30;7.50;;;;;;;15.56;100.00;97786.06;4979703;28;20197;-71
2021/09/09 07:13:23;;;;;;;9.07;8.27;;;;;;;15.69;100.00;97781.78;4983538;28;20723;-69
2021/09/09 07:15:51;;;;;;;9.50;8.50;;;;;;;15.87;100.00;97782.03;4951618;28;20586;-70
2021/09/09 07:18:19;;;;;;;9.30;8.50;;;;;;;16.07;100.00;97778.56;4982690;28;20235;-69
2021/09/09 07:20:47;;;;;;;8.90;8.10;;;;;;;16.29;100.00;97781.06;4974263;28;20244;-69
2021/09/09 07:23:16;;;;;;;8.63;7.93;;;;;;;16.32;100.00;97783.31;4982460;28;20487;-71
2021/09/09 07:25:45;;;;;;;8.17;7.40;;;;;;;16.54;100.00;97791.13;4984512;28;20229;-70
2021/09/09 07:28:14;;;;;;;8.40;7.80;;;;;;;16.52;100.00;97785.97;4979366;28;20225;-70
2021/09/09 07:30:42;;;;;;;8.70;8.00;;;;;;;16.69;100.00;97778.34;4982648;28;20201;-70
2021/09/09 07:33:10;;;;;;;8.30;7.60;;;;;;;16.80;100.00;97779.56;4958176;28;20215;-68
2021/09/09 07:35:38;;;;;;;8.83;8.13;;;;;;;16.88;100.00;97787.34;4986125;28;20596;-69
2021/09/09 07:38:06;;;;;;;8.20;7.60;;;;;;;17.14;100.00;97796.38;4960099;28;20451;-70
2021/09/09 07:40:34;;;;;;;8.20;7.50;;;;;;;17.27;100.00;97803.53;4993180;28;20667;-70
2021/09/09 07:43:04;;;;;;;10.50;8.03;;;;;;;17.38;100.00;97795.88;4990697;28;20271;-70
2021/09/09 07:45:32;;;;;;;7.97;7.37;;;;;;;17.47;100.00;97789.22;4978587;28;20287;-70
2021/09/09 07:48:00;;;;;;;8.23;7.53;;;;;;;17.65;100.00;97796.56;4957583;28;20229;-70
2021/09/09 07:50:27;;;;;;;8.20;7.47;;;;;;;17.94;100.00;97792.44;4991303;28;20216;-70
2021/09/09 07:52:56;;;;;;;9.07;8.37;;;;;;;17.92;100.00;97791.03;4977665;28;20215;-69
2021/09/09 07:55:24;;;;;;;8.20;7.40;;;;;;;18.22;100.00;97791.25;4989229;28;20210;-69
2021/09/09 07:57:52;;;;;;;10.57;7.83;;;;;;;18.34;100.00;97791.38;4989208;28;20221;-67
2021/09/09 08:00:21;;;;;;;9.67;7.17;;;;;;;18.48;100.00;97789.41;4987840;28;20200;-69
2021/09/09 08:02:49;;;;;;;7.73;7.13;;;;;;;18.63;100.00;97794.44;4953960;28;20201;-71
2021/09/09 08:05:18;;;;;;;8.90;8.00;;;;;;;18.75;100.00;97789.16;4984473;28;20213;-70
2021/09/09 08:07:47;;;;;;;8.13;7.43;;;;;;;19.02;100.00;97796.13;4972355;28;20237;-70
2021/09/09 08:10:16;;;;;;;9.77;7.93;;;;;;;19.17;100.00;97801.94;4986205;28;20211;-70
2021/09/09 08:12:46;;;;;;;9.00;7.27;;;;;;;19.26;100.00;97801.63;4981572;28;20650;-71
2021/09/09 08:15:14;;;;;;;8.37;7.43;;;;;;;19.35;100.00;97803.78;4983940;28;20200;-71
2021/09/09 08:17:43;;;;;;;7.60;7.00;;;;;;;19.55;100.00;97810.78;4987943;28;20220;-70
2021/09/09 08:20:12;;;;;;;7.53;6.93;;;;;;;19.62;100.00;97806.16;4937535;28;20893;-70
2021/09/09 08:22:41;;;;;;;9.47;8.17;;;;;;;19.62;100.00;97806.16;4972736;28;20579;-70
2021/09/09 08:25:10;;;;;;;8.10;7.27;;;;;;;19.77;100.00;97796.84;4972018;28;20716;-70
2021/09/09 08:27:38;;;;;;;8.20;7.40;;;;;;;19.95;100.00;97799.53;4981858;28;20481;-68
2021/09/09 08:30:08;;;;;;;7.60;7.00;;;;;;;20.16;100.00;97785.75;4987745;28;20205;-70
2021/09/09 08:32:36;;;;;;;8.40;7.70;;;;;;;20.27;100.00;97789.50;4984996;28;20201;-70
2021/09/09 08:35:07;;;;;;;8.57;7.87;;;;;;;20.50;100.00;97784.16;4957105;28;20565;-70
2021/09/09 08:37:35;;;;;;;8.60;7.30;;;;;;;20.55;100.00;97791.53;4982415;28;20805;-72
2021/09/09 08:40:05;;;;;;;8.40;7.60;;;;;;;20.64;100.00;97789.28;4974617;28;20208;-71
2021/09/09 08:42:33;;;;;;;9.43;8.53;;;;;;;20.59;100.00;97791.88;4977457;28;20630;-70
2021/09/09 08:45:01;;;;;;;9.07;8.37;;;;;;;20.67;100.00;97786.16;4975774;28;20205;-69
2021/09/09 08:47:30;;;;;;;8.07;7.47;;;;;;;20.66;100.00;97798.78;4992136;28;20579;-69
2021/09/09 08:49:58;;;;;;;9.33;7.57;;;;;;;20.80;100.00;97804.78;4965356;28;20673;-71
2021/09/09 08:52:28;;;;;;;7.97;7.30;;;;;;;21.03;100.00;97805.81;5002956;28;20977;-70
2021/09/09 08:54:55;;;;;;;8.50;7.80;;;;;;;21.03;100.00;97799.59;4958303;28;20213;-70
2021/09/09 08:57:23;;;;;;;8.90;8.20;;;;;;;21.10;100.00;97803.81;4980544;28;20235;-70
2021/09/09 08:59:51;;;;;;;9.27;8.57;;;;;;;21.20;100.00;97805.06;4992332;28;20743;-70
2021/09/09 09:02:30;;;;;;;8.37;7.50;;;;;;;21.31;100.00;97804.22;4972365;28;20449;-69
2021/09/09 09:05:04;;;;;;;8.83;7.93;;;;;;;21.46;100.00;97811.00;4987598;28;20236;-70
2021/09/09 09:07:35;;;;;;;9.20;8.40;;;;;;;21.51;100.00;97811.09;4985410;28;20342;-70
2021/09/09 09:10:05;;;;;;;7.50;6.93;;;;;;;21.53;100.00;97808.97;4958185;28;20224;-70
2021/09/09 09:12:41;;;;;;;8.80;8.00;;;;;;;21.57;100.00;97810.13;4982402;28;20320;-71
2021/09/09 09:15:17;;;;;;;8.63;7.53;;;;;;;21.71;100.00;97799.06;4986113;28;20588;-72
2021/09/09 09:17:56;;;;;;;9.10;8.40;;;;;;;21.79;100.00;97802.22;4981961;28;20220;-71
2021/09/09 09:20:26;;;;;;;9.60;8.67;;;;;;;21.91;100.00;97804.84;4973471;28;20478;-71
2021/09/09 09:22:55;;;;;;;10.40;9.40;;;;;;;22.03;100.00;97802.09;4988649;28;20695;-68
2021/09/09 09:25:48;;;;;;;9.03;8.27;;;;;;;22.16;100.00;97805.53;4950233;28;21001;-69
2021/09/09 09:28:17;;;;;;;8.23;7.43;;;;;;;22.27;100.00;97808.16;4985075;28;20224;-70
2021/09/09 09:31:05;;;;;;;8.70;7.93;;;;;;;22.37;100.00;97804.81;4987980;28;20205;-70
2021/09/09 09:33:35;;;;;;;8.50;7.77;;;;;;;22.42;100.00;97801.38;4985339;28;20275;-70
2021/09/09 09:36:23;;;;;;;8.53;7.83;;;;;;;22.53;100.00;97791.59;4977741;28;20217;-72
2021/09/09 09:39:07;;;;;;;8.60;7.90;;;;;;;22.64;100.00;97798.75;4973982;28;20209;-70
2021/09/09 09:41:36;;;;;;;8.27;7.57;;;;;;;22.81;100.00;97796.03;4962384;28;20231;-70
2021/09/09 09:44:18;;;;;;;8.60;7.80;;;;;;;23.02;100.00;97790.09;4981026;28;20212;-70
2021/09/09 09:46:46;;;;;;;8.70;7.97;;;;;;;23.22;100.00;97793.06;4988910;28;20640;-70
2021/09/09 09:49:24;;;;;;;8.70;7.93;;;;;;;23.21;100.00;97796.00;4993605;28;20588;-70
2021/09/09 09:51:53;;;;;;;9.20;7.53;;;;;;;23.22;100.00;97792.25;4981063;28;20213;-70
2021/09/09 09:54:24;;;;;;;8.37;7.57;;;;;;;23.24;100.00;97792.81;4998066;28;20204;-71
2021/09/09 09:56:52;;;;;;;8.63;7.93;;;;;;;23.37;100.00;97781.66;4961507;28;20233;-70
2021/09/09 09:59:21;;;;;;;8.60;8.00;;;;;;;23.41;100.00;97781.94;4978950;28;20696;-70
2021/09/09 10:01:49;;;;;;;9.47;8.53;;;;;;;23.58;100.00;97783.78;4990436;28;20205;-69
2021/09/09 10:04:20;;;;;;;8.30;7.60;;;;;;;23.55;100.00;97782.38;4990864;28;20205;-70
2021/09/09 10:06:49;;;;;;;8.67;7.97;;;;;;;23.55;100.00;97780.50;4976901;28;20367;-70
2021/09/09 10:09:18;;;;;;;8.50;7.80;;;;;;;23.73;100.00;97783.91;4984018;28;20208;-70
2021/09/09 10:11:48;;;;;;;8.70;7.93;;;;;;;23.89;100.00;97781.38;4959955;28;20214;-69
2021/09/09 10:14:19;;;;;;;9.47;8.67;;;;;;;23.90;99.89;97783.81;4984130;28;20205;-71
2021/09/09 10:16:47;;;;;;;8.37;7.77;;;;;;;23.97;100.00;97787.13;4984076;28;20253;-69
2021/09/09 10:19:24;;;;;;;8.67;7.87;;;;;;;24.08;97.24;97773.72;4981469;28;20213;-70
2021/09/09 10:22:03;;;;;;;8.50;7.90;;;;;;;24.19;100.00;97774.59;4978260;28;20213;-71
2021/09/09 10:24:34;;;;;;;8.33;7.63;;;;;;;24.61;94.71;97781.16;4983784;28;20361;-70
2021/09/09 10:27:22;;;;;;;8.53;7.87;;;;;;;24.48;97.69;97774.28;4956573;28;20248;-71
2021/09/09 10:29:53;;;;;;;8.57;7.87;;;;;;;24.48;99.25;97774.28;4986034;28;20687;-70
2021/09/09 10:32:50;;;;;;;8.20;7.60;;;;;;;25.21;93.45;97772.84;4982932;28;20295;-70
2021/09/09 10:35:33;;;;;;;9.07;7.83;;;;;;;25.21;92.55;97768.22;4983304;28;20444;-70
2021/09/09 10:38:41;;;;;;;8.20;7.60;;;;;;;25.33;91.72;97762.56;4970258;28;20228;-71
2021/09/09 10:41:27;;;;;;;8.57;7.87;;;;;;;25.42;87.81;97758.25;4991961;28;20221;-70
2021/09/09 10:44:00;;;;;;;8.30;7.63;;;;;;;25.86;87.58;97770.59;4950097;28;20221;-69
2021/09/09 10:46:33;;;;;;;8.33;7.53;;;;;;;26.29;81.88;97764.91;4987494;28;20544;-70
2021/09/09 10:49:10;;;;;;;8.63;8.00;;;;;;;26.49;79.24;97759.72;4992210;28;20677;-71
2021/09/09 10:51:38;;;;;;;8.33;7.80;;;;;;;26.71;76.18;97760.25;4990823;28;20205;-70
2021/09/09 10:54:15;;;;;;;8.60;7.60;;;;;;;26.42;81.22;97754.59;4982421;28;20220;-72
2021/09/09 10:56:44;;;;;;;8.53;7.90;;;;;;;26.62;77.53;97751.03;4992339;28;20247;-71
2021/09/09 10:59:19;;;;;;;9.53;7.83;;;;;;;26.86;76.31;97753.97;4958110;28;20217;-71
2021/09/09 11:01:49;;;;;;;8.80;7.97;;;;;;;26.78;76.76;97751.81;4988313;28;20614;-70
2021/09/09 11:04:28;;;;;;;8.10;7.43;;;;;;;27.01;73.53;97746.84;4945333;28;20578;-70
2021/09/09 11:06:57;;;;;;;7.83;7.23;;;;;;;26.66;74.05;97752.09;4993700;28;20772;-71
2021/09/09 11:09:26;;;;;;;8.77;7.97;;;;;;;27.15;70.39;97747.91;4974177;28;20614;-70
2021/09/09 11:11:59;;;;;;;7.57;6.97;;;;;;;26.88;74.04;97748.25;4982658;28;20200;-69
2021/09/09 11:14:29;;;;;;;7.97;7.27;;;;;;;26.80;76.56;97759.66;4983026;28;20197;-70
2021/09/09 11:16:57;;;;;;;8.70;7.90;;;;;;;27.36;76.20;97747.78;4982515;28;20241;-70
2021/09/09 11:19:28;;;;;;;8.23;7.57;;;;;;;27.09;72.34;97749.03;4953061;28;20220;-71
2021/09/09 11:22:00;;;;;;;8.37;7.67;;;;;;;27.33;72.85;97753.00;4984512;28;20291;-71
2021/09/09 11:24:33;;;;;;;7.97;7.43;;;;;;;27.03;73.39;97747.38;4979613;28;20446;-71
2021/09/09 11:27:02;;;;;;;8.23;7.53;;;;;;;27.02;72.99;97740.31;4981628;28;20247;-70
2021/09/09 11:29:31;;;;;;;8.23;7.47;;;;;;;26.87;76.08;97741.19;4980989;28;20209;-70
2021/09/09 11:31:59;;;;;;;9.20;8.30;;;;;;;27.22;74.19;97746.78;4983153;28;20208;-70